CheckWX is a tool to help pilots better visualize weather data.  It is not intended as a substitute for an official pre-flight weather briefing.

08:14:09 UTC

KCLK METAR
Clinton Regional Airport
Clinton, Oklahoma, USA
Current

19 mins ago

KCLK 280755Z AUTO 00000KT 10SM SCT090 16/14 A2996 RMK AO2
Observed
May-28 @ 07:55 UTC
Visibility
Flight Rules
VFR
Cloud Levels
  • Scattered at 9,000' AGL
Temperature
16°C / 61°F
Dewpoint
14°C / 57°F
Humidity
88%
Altimeter
29.96" Hg
Pressure
1014.52 hPa
Previous

39 mins ago

KCLK 280735Z AUTO 03004KT 10SM SCT090 16/13 A2996 RMK AO2
Observed
May-28 @ 07:35 UTC
Wind
  • 030° at 4 KTS
Visibility
Flight Rules
VFR
Cloud Levels
  • Scattered at 9,000' AGL
Temperature
16°C / 61°F
Dewpoint
13°C / 55°F
Humidity
83%
Altimeter
29.96" Hg
Pressure
1014.52 hPa
Previous

59 mins ago

KCLK 280715Z AUTO 02004KT 10SM SCT090 16/13 A2996 RMK AO2
Observed
May-28 @ 07:15 UTC
Wind
  • 020° at 4 KTS
Visibility
Flight Rules
VFR
Cloud Levels
  • Scattered at 9,000' AGL
Temperature
16°C / 61°F
Dewpoint
13°C / 55°F
Humidity
83%
Altimeter
29.96" Hg
Pressure
1014.52 hPa